createdAt,value
2022-11-26T00:00:27.363Z,1016.85
2022-11-26T00:01:27.358Z,1016.82
2022-11-26T00:02:27.485Z,1016.84
2022-11-26T00:03:27.379Z,1016.84
2022-11-26T00:04:27.341Z,1016.83
2022-11-26T00:05:27.351Z,1016.80
2022-11-26T00:06:27.349Z,1016.78
2022-11-26T00:07:27.396Z,1016.78
2022-11-26T00:08:27.334Z,1016.76
2022-11-26T00:09:27.318Z,1016.74
2022-11-26T00:10:27.339Z,1016.68
2022-11-26T00:11:27.319Z,1016.68
2022-11-26T00:12:27.346Z,1016.66
2022-11-26T00:13:27.350Z,1016.71
2022-11-26T00:14:27.306Z,1016.72
2022-11-26T00:15:27.312Z,1016.74
2022-11-26T00:16:27.349Z,1016.70
2022-11-26T00:17:27.314Z,1016.78
2022-11-26T00:18:27.308Z,1016.83
2022-11-26T00:19:27.311Z,1016.86
2022-11-26T00:20:27.306Z,1016.84
2022-11-26T00:21:27.304Z,1016.85
2022-11-26T00:22:27.324Z,1016.87
2022-11-26T00:23:27.297Z,1016.94
2022-11-26T00:24:27.294Z,1016.97
2022-11-26T00:25:27.305Z,1016.92
2022-11-26T00:26:27.296Z,1016.99
2022-11-26T00:27:27.288Z,1017.01
2022-11-26T00:28:27.303Z,1017.03
2022-11-26T00:29:27.298Z,1017.04
2022-11-26T00:30:27.291Z,1017.01
2022-11-26T00:31:27.295Z,1017.05
2022-11-26T00:32:27.290Z,1017.09
2022-11-26T00:33:27.302Z,1017.04
2022-11-26T00:34:27.279Z,1017.09
2022-11-26T00:35:27.283Z,1017.07
2022-11-26T00:36:27.261Z,1017.08
2022-11-26T00:37:27.263Z,1017.10
2022-11-26T00:38:27.257Z,1017.10
2022-11-26T00:39:27.283Z,1017.04
2022-11-26T00:40:27.249Z,1017.10
2022-11-26T00:41:27.250Z,1017.11
2022-11-26T00:42:27.257Z,1017.09
2022-11-26T00:43:27.257Z,1017.10
2022-11-26T00:44:27.254Z,1017.10
2022-11-26T00:45:27.324Z,1017.14
2022-11-26T00:46:27.246Z,1017.13
2022-11-26T00:47:27.243Z,1017.17
2022-11-26T00:48:27.230Z,1017.16
2022-11-26T00:49:27.242Z,1017.19
2022-11-26T00:50:27.252Z,1017.21
2022-11-26T00:51:27.225Z,1017.24
2022-11-26T00:52:27.256Z,1017.23
2022-11-26T00:53:27.232Z,1017.24
2022-11-26T00:54:27.234Z,1017.22
2022-11-26T00:55:27.221Z,1017.20
2022-11-26T00:56:27.216Z,1017.31
2022-11-26T00:57:27.219Z,1017.27
2022-11-26T00:58:27.252Z,1017.25
2022-11-26T00:59:27.221Z,1017.27
2022-11-26T01:00:27.210Z,1017.30
2022-11-26T01:01:27.237Z,1017.34
2022-11-26T01:02:27.310Z,1017.33
2022-11-26T01:03:27.211Z,1017.33
2022-11-26T01:04:27.230Z,1017.34
2022-11-26T01:05:27.203Z,1017.33
2022-11-26T01:06:27.214Z,1017.38
2022-11-26T01:07:27.344Z,1017.41
2022-11-26T01:08:27.200Z,1017.42
2022-11-26T01:09:27.185Z,1017.40
2022-11-26T01:10:27.199Z,1017.44
2022-11-26T01:11:27.198Z,1017.47
2022-11-26T01:12:27.191Z,1017.49
2022-11-26T01:13:27.195Z,1017.48
2022-11-26T01:14:27.191Z,1017.52
2022-11-26T01:15:27.185Z,1017.55
2022-11-26T01:16:27.295Z,1017.50
2022-11-26T01:17:27.187Z,1017.55
2022-11-26T01:18:27.170Z,1017.55
2022-11-26T01:19:27.170Z,1017.53
2022-11-26T01:20:27.176Z,1017.51
2022-11-26T01:21:27.163Z,1017.50
2022-11-26T01:22:27.191Z,1017.53
2022-11-26T01:23:27.160Z,1017.56
2022-11-26T01:24:27.156Z,1017.55
2022-11-26T01:25:27.174Z,1017.57
2022-11-26T01:26:27.152Z,1017.57
2022-11-26T01:27:27.150Z,1017.58
2022-11-26T01:28:27.176Z,1017.57
2022-11-26T01:29:27.171Z,1017.56
2022-11-26T01:30:27.159Z,1017.62
2022-11-26T01:31:27.192Z,1017.61
2022-11-26T01:32:29.564Z,1017.61
2022-11-26T01:33:27.146Z,1017.64
2022-11-26T01:34:27.182Z,1017.70
2022-11-26T01:35:27.134Z,1017.66
2022-11-26T01:36:27.133Z,1017.66
2022-11-26T01:37:27.139Z,1017.69
2022-11-26T01:38:27.140Z,1017.68
2022-11-26T01:39:27.137Z,1017.68
2022-11-26T01:40:27.130Z,1017.65
2022-11-26T01:41:27.148Z,1017.63
2022-11-26T01:42:27.129Z,1017.61
2022-11-26T01:43:27.116Z,1017.66
2022-11-26T01:44:27.124Z,1017.70
2022-11-26T01:45:27.136Z,1017.71
2022-11-26T01:46:27.120Z,1017.76
2022-11-26T01:47:27.102Z,1017.69
2022-11-26T01:48:27.129Z,1017.73
2022-11-26T01:49:27.121Z,1017.71
2022-11-26T01:50:27.105Z,1017.76
2022-11-26T01:51:27.117Z,1017.70
2022-11-26T01:52:27.108Z,1017.73
2022-11-26T01:53:27.092Z,1017.70
2022-11-26T01:54:27.092Z,1017.75
2022-11-26T01:55:27.117Z,1017.69
2022-11-26T01:56:27.096Z,1017.72
2022-11-26T01:57:27.087Z,1017.75
2022-11-26T01:58:27.084Z,1017.73
2022-11-26T01:59:27.090Z,1017.80
2022-11-26T02:00:27.101Z,1017.77
2022-11-26T02:01:27.141Z,1017.81
2022-11-26T02:02:27.200Z,1017.80
2022-11-26T02:03:27.088Z,1017.83
2022-11-26T02:04:27.083Z,1017.81
2022-11-26T02:05:27.077Z,1017.78
2022-11-26T02:06:27.076Z,1017.85
2022-11-26T02:07:27.093Z,1017.83
2022-11-26T02:08:27.064Z,1017.81
2022-11-26T02:09:27.092Z,1017.83
2022-11-26T02:10:27.069Z,1017.83
2022-11-26T02:11:27.095Z,1017.80
2022-11-26T02:12:27.067Z,1017.86
2022-11-26T02:13:27.111Z,1017.89
2022-11-26T02:14:27.076Z,1017.88
2022-11-26T02:15:27.058Z,1017.92
2022-11-26T02:16:27.080Z,1017.91
2022-11-26T02:17:27.085Z,1017.98
2022-11-26T02:18:27.053Z,1017.99
2022-11-26T02:19:27.046Z,1018.01
2022-11-26T02:20:27.040Z,1018.01
2022-11-26T02:21:27.033Z,1018.01
2022-11-26T02:22:27.075Z,1018.05
2022-11-26T02:23:27.029Z,1018.05
2022-11-26T02:24:27.043Z,1018.07
2022-11-26T02:25:27.027Z,1018.06
2022-11-26T02:26:27.022Z,1018.08
2022-11-26T02:27:27.032Z,1018.11
2022-11-26T02:28:27.043Z,1018.07
2022-11-26T02:29:27.023Z,1018.13
2022-11-26T02:30:27.032Z,1018.17
2022-11-26T02:31:27.084Z,1018.08
2022-11-26T02:32:27.010Z,1018.13
2022-11-26T02:33:27.033Z,1018.14
2022-11-26T02:34:27.021Z,1018.17
2022-11-26T02:35:27.025Z,1018.12
2022-11-26T02:36:27.013Z,1018.20
2022-11-26T02:37:26.998Z,1018.21
2022-11-26T02:38:27.004Z,1018.22
2022-11-26T02:39:26.994Z,1018.24
2022-11-26T02:40:27.009Z,1018.21
2022-11-26T02:41:27.011Z,1018.23
2022-11-26T02:42:26.994Z,1018.26
2022-11-26T02:43:26.990Z,1018.26
2022-11-26T02:44:27.010Z,1018.26
2022-11-26T02:45:27.072Z,1018.29
2022-11-26T02:46:26.994Z,1018.28
2022-11-26T02:47:26.992Z,1018.24
2022-11-26T02:48:26.986Z,1018.28
2022-11-26T02:49:26.976Z,1018.25
2022-11-26T02:50:26.990Z,1018.29
2022-11-26T02:51:30.754Z,1018.26
2022-11-26T02:52:26.988Z,1018.24
2022-11-26T02:53:26.962Z,1018.24
2022-11-26T02:54:26.965Z,1018.27
2022-11-26T02:55:26.959Z,1018.28
2022-11-26T02:56:26.990Z,1018.22
2022-11-26T02:57:26.963Z,1018.24
2022-11-26T02:58:26.959Z,1018.22
2022-11-26T02:59:26.963Z,1018.20
2022-11-26T03:00:26.955Z,1018.27
2022-11-26T03:01:27.044Z,1018.19
2022-11-26T03:02:26.946Z,1018.26
2022-11-26T03:03:26.961Z,1018.22
2022-11-26T03:04:27.044Z,1018.21
2022-11-26T03:05:26.938Z,1018.23
2022-11-26T03:06:26.948Z,1018.22
2022-11-26T03:07:27.020Z,1018.25
2022-11-26T03:08:26.931Z,1018.20
2022-11-26T03:09:26.934Z,1018.19
2022-11-26T03:10:26.930Z,1018.19
2022-11-26T03:11:26.984Z,1018.22
2022-11-26T03:12:26.933Z,1018.25
2022-11-26T03:13:26.943Z,1018.27
2022-11-26T03:14:26.926Z,1018.26
2022-11-26T03:15:26.939Z,1018.26
2022-11-26T03:16:27.037Z,1018.23
2022-11-26T03:17:26.932Z,1018.32
2022-11-26T03:18:26.937Z,1018.31
2022-11-26T03:19:26.927Z,1018.30
2022-11-26T03:20:26.911Z,1018.33
2022-11-26T03:21:26.913Z,1018.34
2022-11-26T03:22:26.932Z,1018.39
2022-11-26T03:23:26.911Z,1018.39
2022-11-26T03:24:26.902Z,1018.45
2022-11-26T03:25:26.909Z,1018.44
2022-11-26T03:26:26.903Z,1018.45
2022-11-26T03:27:26.890Z,1018.48
2022-11-26T03:28:26.912Z,1018.55
2022-11-26T03:29:26.905Z,1018.53
2022-11-26T03:30:26.891Z,1018.54
2022-11-26T03:31:26.960Z,1018.62
2022-11-26T03:32:26.897Z,1018.58
2022-11-26T03:33:26.898Z,1018.57
2022-11-26T03:34:26.907Z,1018.62
2022-11-26T03:35:26.879Z,1018.57
2022-11-26T03:36:26.876Z,1018.57
2022-11-26T03:37:26.883Z,1018.62
2022-11-26T03:38:26.874Z,1018.61
2022-11-26T03:39:26.866Z,1018.64
2022-11-26T03:40:26.878Z,1018.66
2022-11-26T03:41:26.870Z,1018.66
2022-11-26T03:42:26.862Z,1018.65
2022-11-26T03:43:26.859Z,1018.61
2022-11-26T03:44:26.865Z,1018.66
2022-11-26T03:45:26.941Z,1018.61
2022-11-26T03:46:26.871Z,1018.68
2022-11-26T03:47:26.857Z,1018.63
2022-11-26T03:48:26.846Z,1018.68
2022-11-26T03:49:26.859Z,1018.66
2022-11-26T03:50:26.871Z,1018.70
2022-11-26T03:51:26.842Z,1018.67
2022-11-26T03:52:26.856Z,1018.67
2022-11-26T03:53:26.841Z,1018.73
2022-11-26T03:54:26.862Z,1018.73
2022-11-26T03:55:26.842Z,1018.75
2022-11-26T03:56:26.876Z,1018.78
2022-11-26T03:57:26.843Z,1018.77
2022-11-26T03:58:26.829Z,1018.78
2022-11-26T03:59:26.840Z,1018.76
2022-11-26T04:00:26.822Z,1018.73
2022-11-26T04:01:26.889Z,1018.74
2022-11-26T04:02:26.841Z,1018.74
2022-11-26T04:03:26.877Z,1018.74
2022-11-26T04:04:26.818Z,1018.79
2022-11-26T04:05:26.836Z,1018.80
2022-11-26T04:06:26.826Z,1018.85
2022-11-26T04:07:26.878Z,1018.91
2022-11-26T04:08:26.813Z,1018.89
2022-11-26T04:09:26.803Z,1018.94
2022-11-26T04:10:26.818Z,1018.92
2022-11-26T04:11:26.816Z,1018.91
2022-11-26T04:12:26.798Z,1018.92
2022-11-26T04:13:26.811Z,1018.87
2022-11-26T04:14:26.795Z,1018.88
2022-11-26T04:15:26.803Z,1018.90
2022-11-26T04:16:26.872Z,1018.97
2022-11-26T04:17:26.806Z,1019.02
2022-11-26T04:18:26.788Z,1018.98
2022-11-26T04:19:26.783Z,1019.02
2022-11-26T04:20:26.785Z,1019.00
2022-11-26T04:21:26.779Z,1019.03
2022-11-26T04:22:26.816Z,1019.04
2022-11-26T04:23:26.785Z,1018.98
2022-11-26T04:24:26.773Z,1019.03
2022-11-26T04:25:26.789Z,1019.03
2022-11-26T04:26:26.779Z,1019.01
2022-11-26T04:27:26.774Z,1019.06
2022-11-26T04:28:26.794Z,1019.09
2022-11-26T04:29:26.788Z,1019.12
2022-11-26T04:30:27.557Z,1019.11
2022-11-26T04:31:26.821Z,1019.09
2022-11-26T04:32:26.774Z,1019.14
2022-11-26T04:33:26.786Z,1019.08
2022-11-26T04:34:26.762Z,1019.16
2022-11-26T04:35:26.751Z,1019.19
2022-11-26T04:36:26.764Z,1019.20
2022-11-26T04:37:26.762Z,1019.19
2022-11-26T04:38:26.759Z,1019.22
2022-11-26T04:39:26.757Z,1019.22
2022-11-26T04:40:26.759Z,1019.21
2022-11-26T04:41:26.737Z,1019.26
2022-11-26T04:42:26.751Z,1019.26
2022-11-26T04:43:26.747Z,1019.29
2022-11-26T04:44:26.743Z,1019.30
2022-11-26T04:45:26.774Z,1019.32
2022-11-26T04:46:26.741Z,1019.35
2022-11-26T04:47:26.736Z,1019.39
2022-11-26T04:48:26.731Z,1019.37
2022-11-26T04:49:26.752Z,1019.40
2022-11-26T04:50:26.726Z,1019.39
2022-11-26T04:51:26.764Z,1019.41
2022-11-26T04:52:26.726Z,1019.40
2022-11-26T04:53:26.710Z,1019.43
2022-11-26T04:54:26.731Z,1019.45
2022-11-26T04:55:26.716Z,1019.48
2022-11-26T04:56:26.710Z,1019.48
2022-11-26T04:57:26.755Z,1019.49
2022-11-26T04:58:26.720Z,1019.52
2022-11-26T04:59:26.719Z,1019.55
2022-11-26T05:00:26.706Z,1019.53
2022-11-26T05:01:26.747Z,1019.58
2022-11-26T05:02:26.713Z,1019.57
2022-11-26T05:03:26.693Z,1019.62
2022-11-26T05:04:26.688Z,1019.61
2022-11-26T05:05:26.704Z,1019.64
2022-11-26T05:06:26.695Z,1019.69
2022-11-26T05:07:26.738Z,1019.72
2022-11-26T05:08:26.710Z,1019.70
2022-11-26T05:09:26.700Z,1019.70
2022-11-26T05:10:26.679Z,1019.68
2022-11-26T05:11:26.672Z,1019.69
2022-11-26T05:12:26.673Z,1019.70
2022-11-26T05:13:26.683Z,1019.72
2022-11-26T05:14:26.697Z,1019.74
2022-11-26T05:15:26.664Z,1019.73
2022-11-26T05:16:26.694Z,1019.72
2022-11-26T05:17:26.661Z,1019.77
2022-11-26T05:18:26.660Z,1019.77
2022-11-26T05:19:26.657Z,1019.82
2022-11-26T05:20:26.675Z,1019.82
2022-11-26T05:21:26.670Z,1019.81
2022-11-26T05:22:26.665Z,1019.82
2022-11-26T05:23:26.654Z,1019.86
2022-11-26T05:24:26.654Z,1019.88
2022-11-26T05:25:26.674Z,1019.87
2022-11-26T05:26:26.648Z,1019.91
2022-11-26T05:27:26.641Z,1019.95
2022-11-26T05:28:26.642Z,1019.98
2022-11-26T05:29:26.672Z,1020.00
2022-11-26T05:30:26.661Z,1020.08
2022-11-26T05:31:26.762Z,1020.06
2022-11-26T05:32:26.643Z,1020.06
2022-11-26T05:33:26.639Z,1020.07
2022-11-26T05:34:26.633Z,1020.03
2022-11-26T05:35:26.635Z,1020.04
2022-11-26T05:36:26.641Z,1020.03
2022-11-26T05:37:26.635Z,1020.05
2022-11-26T05:38:26.623Z,1020.06
2022-11-26T05:39:26.702Z,1020.10
2022-11-26T05:40:26.642Z,1020.10
2022-11-26T05:41:26.640Z,1020.10
2022-11-26T05:42:26.715Z,1020.06
2022-11-26T05:43:26.613Z,1020.12
2022-11-26T05:44:26.620Z,1020.10
2022-11-26T05:45:26.665Z,1020.09
2022-11-26T05:46:26.616Z,1020.09
2022-11-26T05:47:26.726Z,1020.08
2022-11-26T05:48:26.618Z,1020.13
2022-11-26T05:49:26.600Z,1020.13
2022-11-26T05:50:26.600Z,1020.11
2022-11-26T05:51:26.595Z,1020.13
2022-11-26T05:52:26.584Z,1020.14
2022-11-26T05:53:26.603Z,1020.13
2022-11-26T05:54:26.587Z,1020.17
2022-11-26T05:55:26.582Z,1020.14
2022-11-26T05:56:26.597Z,1020.16
2022-11-26T05:57:26.591Z,1020.16
2022-11-26T05:58:26.575Z,1020.18
2022-11-26T05:59:26.584Z,1020.16
2022-11-26T06:00:26.573Z,1020.18
2022-11-26T06:01:26.575Z,1020.21
2022-11-26T06:02:26.643Z,1020.23
2022-11-26T06:03:26.632Z,1020.23
2022-11-26T06:04:26.561Z,1020.29
2022-11-26T06:05:26.565Z,1020.24
2022-11-26T06:06:26.559Z,1020.27
2022-11-26T06:07:26.577Z,1020.31
2022-11-26T06:08:26.575Z,1020.31
2022-11-26T06:09:26.565Z,1020.34
2022-11-26T06:10:26.559Z,1020.39
2022-11-26T06:11:26.547Z,1020.39
2022-11-26T06:12:26.578Z,1020.39
2022-11-26T06:13:26.555Z,1020.37
2022-11-26T06:14:26.538Z,1020.34
2022-11-26T06:15:26.548Z,1020.40
2022-11-26T06:16:26.592Z,1020.42
2022-11-26T06:17:26.554Z,1020.50
2022-11-26T06:18:26.543Z,1020.49
2022-11-26T06:19:26.530Z,1020.46
2022-11-26T06:20:26.526Z,1020.48
2022-11-26T06:21:26.529Z,1020.49
2022-11-26T06:22:26.552Z,1020.54
2022-11-26T06:23:26.544Z,1020.57
2022-11-26T06:24:26.539Z,1020.51
2022-11-26T06:25:26.526Z,1020.62
2022-11-26T06:26:26.514Z,1020.63
2022-11-26T06:27:26.530Z,1020.61
2022-11-26T06:28:26.512Z,1020.64
2022-11-26T06:29:28.283Z,1020.66
2022-11-26T06:30:26.519Z,1020.70
2022-11-26T06:31:26.540Z,1020.72
2022-11-26T06:32:26.553Z,1020.75
2022-11-26T06:33:26.508Z,1020.75
2022-11-26T06:34:26.495Z,1020.78
2022-11-26T06:35:26.501Z,1020.83
2022-11-26T06:36:26.512Z,1020.79
2022-11-26T06:37:26.495Z,1020.82
2022-11-26T06:38:26.502Z,1020.80
2022-11-26T06:39:26.487Z,1020.81
2022-11-26T06:40:26.490Z,1020.84
2022-11-26T06:41:26.494Z,1020.81
2022-11-26T06:42:26.478Z,1020.81
2022-11-26T06:43:26.491Z,1020.83
2022-11-26T06:44:26.522Z,1020.82
2022-11-26T06:45:26.571Z,1020.83
2022-11-26T06:46:26.482Z,1020.78
2022-11-26T06:47:26.483Z,1020.86
2022-11-26T06:48:26.508Z,1020.84
2022-11-26T06:49:26.477Z,1020.90
2022-11-26T06:50:26.480Z,1020.84
2022-11-26T06:51:26.482Z,1020.87
2022-11-26T06:52:26.503Z,1020.94
2022-11-26T06:53:26.494Z,1020.97
2022-11-26T06:54:26.467Z,1020.99
2022-11-26T06:55:26.461Z,1021.02
2022-11-26T06:56:26.461Z,1021.00
2022-11-26T06:57:26.463Z,1021.05
2022-11-26T06:58:26.471Z,1021.04
2022-11-26T06:59:26.439Z,1021.12
2022-11-26T07:00:26.496Z,1021.13
2022-11-26T07:01:26.593Z,1021.14
2022-11-26T07:02:26.513Z,1021.12
2022-11-26T07:03:31.887Z,1021.15
2022-11-26T07:04:26.484Z,1021.15
2022-11-26T07:05:26.460Z,1021.15
2022-11-26T07:06:26.443Z,1021.17
2022-11-26T07:07:26.501Z,1021.17
2022-11-26T07:08:26.434Z,1021.25
2022-11-26T07:09:26.460Z,1021.23
2022-11-26T07:10:26.426Z,1021.27
2022-11-26T07:11:26.431Z,1021.28
2022-11-26T07:12:26.412Z,1021.24
2022-11-26T07:13:26.410Z,1021.31
2022-11-26T07:14:26.431Z,1021.29
2022-11-26T07:15:26.418Z,1021.33
2022-11-26T07:16:26.497Z,1021.29
2022-11-26T07:17:26.428Z,1021.25
2022-11-26T07:18:26.406Z,1021.30
2022-11-26T07:19:26.399Z,1021.34
2022-11-26T07:20:26.396Z,1021.33
2022-11-26T07:21:26.409Z,1021.33
2022-11-26T07:22:26.404Z,1021.32
2022-11-26T07:23:26.406Z,1021.34
2022-11-26T07:24:26.430Z,1021.32
2022-11-26T07:25:26.390Z,1021.36
2022-11-26T07:26:26.426Z,1021.36
2022-11-26T07:27:26.407Z,1021.33
2022-11-26T07:28:26.379Z,1021.35
2022-11-26T07:29:26.392Z,1021.36
2022-11-26T07:30:26.383Z,1021.35
2022-11-26T07:31:26.424Z,1021.36
2022-11-26T07:32:26.426Z,1021.37
2022-11-26T07:33:26.381Z,1021.40
2022-11-26T07:34:26.382Z,1021.39
2022-11-26T07:35:26.384Z,1021.38
2022-11-26T07:36:26.408Z,1021.41
2022-11-26T07:37:26.395Z,1021.37
2022-11-26T07:38:26.365Z,1021.40
2022-11-26T07:39:26.371Z,1021.37
2022-11-26T07:40:26.355Z,1021.45
2022-11-26T07:41:26.387Z,1021.47
2022-11-26T07:42:26.354Z,1021.48
2022-11-26T07:43:26.365Z,1021.47
2022-11-26T07:44:26.374Z,1021.51
2022-11-26T07:45:26.362Z,1021.56
2022-11-26T07:46:26.405Z,1021.52
2022-11-26T07:47:26.376Z,1021.57
2022-11-26T07:48:26.358Z,1021.58
2022-11-26T07:49:26.364Z,1021.60
2022-11-26T07:50:26.339Z,1021.59
2022-11-26T07:51:26.345Z,1021.59
2022-11-26T07:52:26.354Z,1021.66
2022-11-26T07:53:26.333Z,1021.66
2022-11-26T07:54:26.346Z,1021.67
2022-11-26T07:55:26.336Z,1021.68
2022-11-26T07:56:26.332Z,1021.69
2022-11-26T07:57:26.335Z,1021.64
2022-11-26T07:58:26.332Z,1021.69
2022-11-26T07:59:26.330Z,1021.69
2022-11-26T08:00:26.313Z,1021.66
2022-11-26T08:01:26.365Z,1021.73
2022-11-26T08:02:26.373Z,1021.73
2022-11-26T08:03:26.313Z,1021.71
2022-11-26T08:04:26.331Z,1021.80
2022-11-26T08:05:26.304Z,1021.75
2022-11-26T08:06:26.301Z,1021.78
2022-11-26T08:07:29.466Z,1021.79
2022-11-26T08:08:26.301Z,1021.76
2022-11-26T08:09:26.316Z,1021.75
2022-11-26T08:10:26.395Z,1021.80
2022-11-26T08:11:26.308Z,1021.80
2022-11-26T08:12:26.316Z,1021.80
2022-11-26T08:13:26.309Z,1021.81
2022-11-26T08:14:26.307Z,1021.86
2022-11-26T08:15:26.297Z,1021.83
2022-11-26T08:16:28.897Z,1021.91
2022-11-26T08:17:26.386Z,1021.91
2022-11-26T08:18:26.289Z,1021.92
2022-11-26T08:19:26.288Z,1021.90
2022-11-26T08:20:29.104Z,1021.93
2022-11-26T08:21:26.281Z,1021.99
2022-11-26T08:22:26.280Z,1021.97
2022-11-26T08:23:26.283Z,1022.01
2022-11-26T08:24:26.280Z,1022.00
2022-11-26T08:25:26.278Z,1021.98
2022-11-26T08:26:35.059Z,1022.00
2022-11-26T08:27:26.256Z,1022.01
2022-11-26T08:28:26.281Z,1022.00
2022-11-26T08:29:26.275Z,1022.02
2022-11-26T08:30:26.301Z,1022.01
2022-11-26T08:31:26.280Z,1022.00
2022-11-26T08:32:26.261Z,1022.01
2022-11-26T08:33:26.260Z,1022.05
2022-11-26T08:34:26.274Z,1022.05
2022-11-26T08:35:44.391Z,1022.01
2022-11-26T08:36:26.255Z,1022.01
2022-11-26T08:37:26.255Z,1022.06
2022-11-26T08:38:26.250Z,1022.07
2022-11-26T08:39:26.232Z,1022.07
2022-11-26T08:40:26.238Z,1022.11
2022-11-26T08:41:26.226Z,1022.08
2022-11-26T08:42:26.243Z,1022.12
2022-11-26T08:43:45.097Z,1022.08
2022-11-26T08:44:26.230Z,1022.16
2022-11-26T08:45:26.231Z,1022.20
2022-11-26T08:46:26.350Z,1022.18
2022-11-26T08:47:26.221Z,1022.25
2022-11-26T08:48:30.464Z,1022.22
2022-11-26T08:49:26.218Z,1022.24
2022-11-26T08:50:26.212Z,1022.25
2022-11-26T08:51:26.228Z,1022.23
2022-11-26T08:52:26.216Z,1022.25
2022-11-26T08:53:26.267Z,1022.27
2022-11-26T08:54:26.222Z,1022.31
2022-11-26T08:55:27.093Z,1022.27
2022-11-26T08:56:26.200Z,1022.24
2022-11-26T08:57:26.210Z,1022.34
2022-11-26T08:58:26.207Z,1022.27
2022-11-26T08:59:26.212Z,1022.32
2022-11-26T09:00:26.209Z,1022.32
2022-11-26T09:01:26.246Z,1022.35
2022-11-26T09:02:26.263Z,1022.35
2022-11-26T09:03:26.277Z,1022.38
2022-11-26T09:04:26.191Z,1022.43
2022-11-26T09:05:26.201Z,1022.45
2022-11-26T09:06:26.221Z,1022.45
2022-11-26T09:07:26.237Z,1022.46
2022-11-26T09:08:26.184Z,1022.51
2022-11-26T09:09:26.176Z,1022.52
2022-11-26T09:10:26.204Z,1022.47
2022-11-26T09:11:26.184Z,1022.54
2022-11-26T09:12:26.179Z,1022.49
2022-11-26T09:13:26.202Z,1022.46
2022-11-26T09:14:26.182Z,1022.51
2022-11-26T09:15:26.187Z,1022.53
2022-11-26T09:16:26.281Z,1022.53
2022-11-26T09:17:26.159Z,1022.55
2022-11-26T09:18:26.172Z,1022.53
2022-11-26T09:19:26.158Z,1022.53
2022-11-26T09:20:26.175Z,1022.55
2022-11-26T09:21:26.169Z,1022.59
2022-11-26T09:22:26.171Z,1022.65
2022-11-26T09:23:26.158Z,1022.57
2022-11-26T09:24:26.167Z,1022.58
2022-11-26T09:25:26.155Z,1022.63
2022-11-26T09:26:26.150Z,1022.59
2022-11-26T09:27:26.145Z,1022.62
2022-11-26T09:28:26.433Z,1022.66
2022-11-26T09:29:26.150Z,1022.70
2022-11-26T09:30:26.344Z,1022.70
2022-11-26T09:31:26.166Z,1022.71
2022-11-26T09:32:29.666Z,1022.74
2022-11-26T09:33:27.113Z,1022.72
2022-11-26T09:34:26.174Z,1022.70
2022-11-26T09:35:26.133Z,1022.73
2022-11-26T09:36:26.124Z,1022.82
2022-11-26T09:37:26.151Z,1022.79
2022-11-26T09:38:26.131Z,1022.78
2022-11-26T09:39:26.131Z,1022.81
2022-11-26T09:40:26.120Z,1022.80
2022-11-26T09:41:26.144Z,1022.86
2022-11-26T09:42:26.122Z,1022.85
2022-11-26T09:43:26.140Z,1022.83
2022-11-26T09:44:27.863Z,1022.91
2022-11-26T09:45:26.137Z,1022.87
2022-11-26T09:46:26.106Z,1022.91
2022-11-26T09:47:26.132Z,1022.93
2022-11-26T10:01:54.660Z,1022.97
2022-11-26T10:02:54.607Z,1023.02
2022-11-26T10:03:54.503Z,1023.00
2022-11-26T10:04:54.604Z,1023.05
2022-11-26T10:05:54.616Z,1023.10
2022-11-26T10:06:54.556Z,1023.11
2022-11-26T10:07:55.790Z,1023.07
2022-11-26T10:08:54.580Z,1023.12
2022-11-26T10:09:54.666Z,1023.08
2022-11-26T10:10:54.642Z,1023.10
2022-11-26T10:11:54.627Z,1023.12
2022-11-26T10:13:17.459Z,1023.06
2022-11-26T10:13:54.568Z,1023.12
2022-11-26T10:14:54.587Z,1023.09
2022-11-26T10:15:54.495Z,1023.11
2022-11-26T10:16:53.863Z,1023.10
2022-11-26T10:17:53.744Z,1023.08
2022-11-26T10:18:54.646Z,1023.12
2022-11-26T10:19:53.686Z,1023.11
2022-11-26T10:20:53.680Z,1023.14
2022-11-26T10:22:00.705Z,1023.13
2022-11-26T10:22:57.094Z,1023.12
2022-11-26T10:23:53.664Z,1023.09
2022-11-26T10:24:53.653Z,1023.08
2022-11-26T10:25:53.642Z,1023.05
2022-11-26T10:26:53.669Z,1023.04
2022-11-26T10:27:53.642Z,1023.08
2022-11-26T10:28:53.647Z,1023.06
2022-11-26T10:29:53.675Z,1023.07
2022-11-26T10:30:53.666Z,1023.10
2022-11-26T10:31:53.698Z,1023.08
2022-11-26T10:32:53.674Z,1023.11
2022-11-26T10:33:53.670Z,1023.11
2022-11-26T10:34:53.697Z,1023.17
2022-11-26T10:35:53.629Z,1023.14
2022-11-26T10:36:53.690Z,1023.18
2022-11-26T10:37:53.630Z,1023.19
2022-11-26T10:38:53.630Z,1023.18
2022-11-26T10:39:59.173Z,1023.20
2022-11-26T10:40:53.631Z,1023.18
2022-11-26T10:41:53.639Z,1023.17
2022-11-26T10:42:53.640Z,1023.26
2022-11-26T10:43:53.695Z,1023.26
2022-11-26T10:44:53.718Z,1023.26
2022-11-26T10:45:53.709Z,1023.30
2022-11-26T10:46:53.732Z,1023.32
2022-11-26T10:53:03.232Z,1023.35
2022-11-26T10:54:03.393Z,1023.36
2022-11-26T10:56:50.505Z,1023.38
2022-11-26T10:57:50.728Z,1023.39
2022-11-26T10:58:50.679Z,1023.44
2022-11-26T10:59:50.184Z,1023.44
2022-11-26T11:00:50.004Z,1023.41
2022-11-26T11:01:51.712Z,1023.44
2022-11-26T11:02:50.707Z,1023.43
2022-11-26T11:04:49.905Z,1023.45
2022-11-26T11:06:05.405Z,1023.42
2022-11-26T11:06:50.322Z,1023.45
2022-11-26T11:07:49.915Z,1023.42
2022-11-26T11:08:49.915Z,1023.42
2022-11-26T11:09:49.881Z,1023.42
2022-11-26T11:11:02.979Z,1023.42
2022-11-26T11:11:59.499Z,1023.43
2022-11-26T11:12:49.950Z,1023.48
2022-11-26T11:14:01.087Z,1023.44
2022-11-26T11:14:59.995Z,1023.48
2022-11-26T11:15:59.995Z,1023.48
2022-11-26T11:17:01.112Z,1023.47
2022-11-26T11:17:59.504Z,1023.48
2022-11-26T11:20:32.638Z,1023.46
2022-11-26T11:21:47.887Z,1023.50
2022-11-26T11:24:56.500Z,1023.57
2022-11-26T11:31:09.564Z,1023.56
2022-11-26T11:36:32.873Z,1023.56
2022-11-26T11:39:14.620Z,1023.61
2022-11-26T11:40:29.273Z,1023.58
2022-11-26T11:43:08.354Z,1023.60
2022-11-26T11:46:02.549Z,1023.57
2022-11-26T11:47:02.239Z,1023.59
2022-11-26T11:48:02.350Z,1023.61
2022-11-26T11:49:03.097Z,1023.59
2022-11-26T11:50:03.168Z,1023.62
2022-11-26T11:51:02.166Z,1023.60
2022-11-26T11:52:02.173Z,1023.63
2022-11-26T11:53:02.154Z,1023.59
2022-11-26T11:54:02.325Z,1023.59
2022-11-26T11:55:02.195Z,1023.59
2022-11-26T11:56:02.873Z,1023.62
2022-11-26T11:57:02.162Z,1023.63
2022-11-26T11:58:02.187Z,1023.65
2022-11-26T11:59:02.162Z,1023.69
2022-11-26T12:00:02.184Z,1023.68
2022-11-26T12:01:02.260Z,1023.66
2022-11-26T12:02:02.213Z,1023.63
2022-11-26T12:03:29.462Z,1023.68
2022-11-26T12:04:02.270Z,1023.66
2022-11-26T12:05:02.210Z,1023.69
2022-11-26T12:06:02.157Z,1023.67
2022-11-26T12:07:02.125Z,1023.66
2022-11-26T12:08:02.133Z,1023.65
2022-11-26T12:09:02.131Z,1023.62
2022-11-26T12:10:02.123Z,1023.65
2022-11-26T12:11:02.165Z,1023.68
2022-11-26T12:12:02.158Z,1023.70
2022-11-26T12:13:02.159Z,1023.71
2022-11-26T12:14:02.154Z,1023.74
2022-11-26T12:15:02.117Z,1023.67
2022-11-26T12:16:02.143Z,1023.70
2022-11-26T12:17:02.256Z,1023.67
2022-11-26T12:18:02.134Z,1023.69
2022-11-26T12:19:02.969Z,1023.65
2022-11-26T12:20:02.205Z,1023.66
2022-11-26T12:21:02.108Z,1023.65
2022-11-26T12:22:02.109Z,1023.64
2022-11-26T12:23:02.138Z,1023.65
2022-11-26T12:24:02.127Z,1023.65
2022-11-26T12:25:02.115Z,1023.63
2022-11-26T12:26:02.087Z,1023.61
2022-11-26T12:27:02.139Z,1023.64
2022-11-26T12:28:02.095Z,1023.66
2022-11-26T12:29:02.089Z,1023.62
2022-11-26T12:30:02.090Z,1023.65
2022-11-26T12:31:02.150Z,1023.65
2022-11-26T12:32:17.000Z,1023.62
2022-11-26T12:33:02.626Z,1023.65
2022-11-26T12:34:08.190Z,1023.65
2022-11-26T12:35:02.167Z,1023.67
2022-11-26T12:36:02.919Z,1023.66
2022-11-26T12:37:03.000Z,1023.69
2022-11-26T12:38:02.125Z,1023.67
2022-11-26T12:39:02.992Z,1023.65
2022-11-26T12:40:02.065Z,1023.63
2022-11-26T12:41:02.996Z,1023.68
2022-11-26T12:42:02.084Z,1023.64
2022-11-26T12:43:02.177Z,1023.63
2022-11-26T12:44:02.174Z,1023.66
2022-11-26T12:45:02.050Z,1023.62
2022-11-26T12:46:02.150Z,1023.65